sensor_id;sensor_type;location;lat;lon;timestamp;temperature;humidity
6964;DHT22;3522;50.856;7.278;2022-08-23T00:00:29;19.80;99.90
6964;DHT22;3522;50.856;7.278;2022-08-23T00:02:55;19.70;99.90
6964;DHT22;3522;50.856;7.278;2022-08-23T00:05:22;19.70;99.90
6964;DHT22;3522;50.856;7.278;2022-08-23T00:07:48;19.70;99.90
6964;DHT22;3522;50.856;7.278;2022-08-23T00:10:15;19.70;99.90
6964;DHT22;3522;50.856;7.278;2022-08-23T00:12:42;19.60;99.90
6964;DHT22;3522;50.856;7.278;2022-08-23T00:15:12;19.60;99.90
6964;DHT22;3522;50.856;7.278;2022-08-23T00:17:38;19.60;99.90
6964;DHT22;3522;50.856;7.278;2022-08-23T00:20:07;19.60;99.90
6964;DHT22;3522;50.856;7.278;2022-08-23T00:22:34;19.60;99.90
6964;DHT22;3522;50.856;7.278;2022-08-23T00:25:01;19.60;99.90
6964;DHT22;3522;50.856;7.278;2022-08-23T00:27:27;19.70;99.90
6964;DHT22;3522;50.856;7.278;2022-08-23T00:29:54;19.60;99.90
6964;DHT22;3522;50.856;7.278;2022-08-23T00:32:26;19.60;99.90
6964;DHT22;3522;50.856;7.278;2022-08-23T00:34:53;19.60;99.90
6964;DHT22;3522;50.856;7.278;2022-08-23T00:37:19;19.60;99.90
6964;DHT22;3522;50.856;7.278;2022-08-23T00:39:46;19.50;99.90
6964;DHT22;3522;50.856;7.278;2022-08-23T00:42:15;19.60;99.90
6964;DHT22;3522;50.856;7.278;2022-08-23T00:45:09;19.60;99.90
6964;DHT22;3522;50.856;7.278;2022-08-23T00:47:57;19.60;99.90
6964;DHT22;3522;50.856;7.278;2022-08-23T00:50:24;19.60;99.90
6964;DHT22;3522;50.856;7.278;2022-08-23T00:52:56;19.60;99.90
6964;DHT22;3522;50.856;7.278;2022-08-23T00:55:25;19.50;99.90
6964;DHT22;3522;50.856;7.278;2022-08-23T00:57:52;19.50;99.90
6964;DHT22;3522;50.856;7.278;2022-08-23T01:00:19;19.50;99.90
6964;DHT22;3522;50.856;7.278;2022-08-23T01:02:47;19.50;99.90
6964;DHT22;3522;50.856;7.278;2022-08-23T01:05:15;19.50;99.90
6964;DHT22;3522;50.856;7.278;2022-08-23T01:07:44;19.50;99.90
6964;DHT22;3522;50.856;7.278;2022-08-23T01:10:13;19.50;99.90
6964;DHT22;3522;50.856;7.278;2022-08-23T01:12:44;19.50;99.90
6964;DHT22;3522;50.856;7.278;2022-08-23T01:15:14;19.50;99.90
6964;DHT22;3522;50.856;7.278;2022-08-23T01:17:42;19.50;99.90
6964;DHT22;3522;50.856;7.278;2022-08-23T01:20:13;19.50;99.90
6964;DHT22;3522;50.856;7.278;2022-08-23T01:22:43;19.40;99.90
6964;DHT22;3522;50.856;7.278;2022-08-23T01:25:15;19.40;99.90
6964;DHT22;3522;50.856;7.278;2022-08-23T01:27:43;19.40;99.90
6964;DHT22;3522;50.856;7.278;2022-08-23T01:30:11;19.40;99.90
6964;DHT22;3522;50.856;7.278;2022-08-23T01:32:40;19.40;99.90
6964;DHT22;3522;50.856;7.278;2022-08-23T01:35:08;19.40;99.90
6964;DHT22;3522;50.856;7.278;2022-08-23T01:37:34;19.50;99.90
6964;DHT22;3522;50.856;7.278;2022-08-23T01:40:01;19.50;99.90
6964;DHT22;3522;50.856;7.278;2022-08-23T01:42:29;19.60;99.90
6964;DHT22;3522;50.856;7.278;2022-08-23T01:44:56;19.60;99.90
6964;DHT22;3522;50.856;7.278;2022-08-23T01:47:23;19.60;99.90
6964;DHT22;3522;50.856;7.278;2022-08-23T01:49:49;19.70;99.90
6964;DHT22;3522;50.856;7.278;2022-08-23T01:52:16;19.70;99.90
6964;DHT22;3522;50.856;7.278;2022-08-23T01:54:43;19.70;99.90
6964;DHT22;3522;50.856;7.278;2022-08-23T01:57:10;19.70;99.90
6964;DHT22;3522;50.856;7.278;2022-08-23T01:59:38;19.70;99.90
6964;DHT22;3522;50.856;7.278;2022-08-23T02:02:05;19.70;99.90
6964;DHT22;3522;50.856;7.278;2022-08-23T02:04:32;19.70;99.90
6964;DHT22;3522;50.856;7.278;2022-08-23T02:06:58;19.70;99.90
6964;DHT22;3522;50.856;7.278;2022-08-23T02:09:25;19.80;99.90
6964;DHT22;3522;50.856;7.278;2022-08-23T02:11:51;19.80;99.90
6964;DHT22;3522;50.856;7.278;2022-08-23T02:14:19;19.80;99.90
6964;DHT22;3522;50.856;7.278;2022-08-23T02:16:48;19.80;99.90
6964;DHT22;3522;50.856;7.278;2022-08-23T02:19:15;19.70;99.90
6964;DHT22;3522;50.856;7.278;2022-08-23T02:21:42;19.70;99.90
6964;DHT22;3522;50.856;7.278;2022-08-23T02:24:09;19.60;99.90
6964;DHT22;3522;50.856;7.278;2022-08-23T02:26:37;19.50;99.90
6964;DHT22;3522;50.856;7.278;2022-08-23T02:29:04;19.40;99.90
6964;DHT22;3522;50.856;7.278;2022-08-23T02:31:30;19.40;99.90
6964;DHT22;3522;50.856;7.278;2022-08-23T02:33:59;19.40;99.90
6964;DHT22;3522;50.856;7.278;2022-08-23T02:36:25;19.30;99.90
6964;DHT22;3522;50.856;7.278;2022-08-23T02:38:52;19.30;99.90
6964;DHT22;3522;50.856;7.278;2022-08-23T02:41:19;19.30;99.90
6964;DHT22;3522;50.856;7.278;2022-08-23T02:43:46;19.20;99.90
6964;DHT22;3522;50.856;7.278;2022-08-23T02:46:12;19.20;99.90
6964;DHT22;3522;50.856;7.278;2022-08-23T02:48:39;19.20;99.90
6964;DHT22;3522;50.856;7.278;2022-08-23T02:51:07;19.10;99.90
6964;DHT22;3522;50.856;7.278;2022-08-23T02:53:33;19.10;99.90
6964;DHT22;3522;50.856;7.278;2022-08-23T02:56:00;19.00;99.90
6964;DHT22;3522;50.856;7.278;2022-08-23T02:58:27;19.00;99.90
6964;DHT22;3522;50.856;7.278;2022-08-23T03:00:53;18.90;99.90
6964;DHT22;3522;50.856;7.278;2022-08-23T03:03:20;18.80;99.90
6964;DHT22;3522;50.856;7.278;2022-08-23T03:05:48;18.80;99.90
6964;DHT22;3522;50.856;7.278;2022-08-23T03:08:16;18.70;99.90
6964;DHT22;3522;50.856;7.278;2022-08-23T03:10:43;18.70;99.90
6964;DHT22;3522;50.856;7.278;2022-08-23T03:13:11;18.70;99.90
6964;DHT22;3522;50.856;7.278;2022-08-23T03:15:38;18.70;99.90
6964;DHT22;3522;50.856;7.278;2022-08-23T03:18:04;18.70;99.90
6964;DHT22;3522;50.856;7.278;2022-08-23T03:20:32;18.70;99.90
6964;DHT22;3522;50.856;7.278;2022-08-23T03:22:59;18.70;99.90
6964;DHT22;3522;50.856;7.278;2022-08-23T03:25:27;18.70;99.90
6964;DHT22;3522;50.856;7.278;2022-08-23T03:27:53;18.60;99.90
6964;DHT22;3522;50.856;7.278;2022-08-23T03:30:20;18.60;99.90
6964;DHT22;3522;50.856;7.278;2022-08-23T03:32:46;18.60;99.90
6964;DHT22;3522;50.856;7.278;2022-08-23T03:35:13;18.60;99.90
6964;DHT22;3522;50.856;7.278;2022-08-23T03:37:39;18.60;99.90
6964;DHT22;3522;50.856;7.278;2022-08-23T03:40:06;18.60;99.90
6964;DHT22;3522;50.856;7.278;2022-08-23T03:42:34;18.60;99.90
6964;DHT22;3522;50.856;7.278;2022-08-23T03:45:01;18.60;99.90
6964;DHT22;3522;50.856;7.278;2022-08-23T03:47:27;18.50;99.90
6964;DHT22;3522;50.856;7.278;2022-08-23T03:49:54;18.50;99.90
6964;DHT22;3522;50.856;7.278;2022-08-23T03:52:21;18.50;99.90
6964;DHT22;3522;50.856;7.278;2022-08-23T03:54:47;18.60;99.90
6964;DHT22;3522;50.856;7.278;2022-08-23T03:57:14;18.50;99.90
6964;DHT22;3522;50.856;7.278;2022-08-23T03:59:42;18.50;99.90
6964;DHT22;3522;50.856;7.278;2022-08-23T04:02:08;18.50;99.90
6964;DHT22;3522;50.856;7.278;2022-08-23T04:04:35;18.40;99.90
6964;DHT22;3522;50.856;7.278;2022-08-23T04:07:02;18.40;99.90
6964;DHT22;3522;50.856;7.278;2022-08-23T04:09:28;18.30;99.90
6964;DHT22;3522;50.856;7.278;2022-08-23T04:11:55;18.30;99.90
6964;DHT22;3522;50.856;7.278;2022-08-23T04:14:22;18.30;99.90
6964;DHT22;3522;50.856;7.278;2022-08-23T04:16:50;18.20;99.90
6964;DHT22;3522;50.856;7.278;2022-08-23T04:19:17;18.10;99.90
6964;DHT22;3522;50.856;7.278;2022-08-23T04:21:44;18.00;99.90
6964;DHT22;3522;50.856;7.278;2022-08-23T04:24:12;17.90;99.90
6964;DHT22;3522;50.856;7.278;2022-08-23T04:26:39;17.80;99.90
6964;DHT22;3522;50.856;7.278;2022-08-23T04:29:05;17.80;99.90
6964;DHT22;3522;50.856;7.278;2022-08-23T04:31:32;17.70;99.90
6964;DHT22;3522;50.856;7.278;2022-08-23T04:34:00;17.70;99.90
6964;DHT22;3522;50.856;7.278;2022-08-23T04:36:27;17.70;99.90
6964;DHT22;3522;50.856;7.278;2022-08-23T04:38:56;17.70;99.90
6964;DHT22;3522;50.856;7.278;2022-08-23T04:41:22;17.70;99.90
6964;DHT22;3522;50.856;7.278;2022-08-23T04:44:07;17.60;99.90
6964;DHT22;3522;50.856;7.278;2022-08-23T04:46:33;17.60;99.90
6964;DHT22;3522;50.856;7.278;2022-08-23T04:49:02;17.60;99.90
6964;DHT22;3522;50.856;7.278;2022-08-23T04:51:28;17.60;99.90
6964;DHT22;3522;50.856;7.278;2022-08-23T04:53:55;17.70;99.90
6964;DHT22;3522;50.856;7.278;2022-08-23T04:56:22;17.60;99.90
6964;DHT22;3522;50.856;7.278;2022-08-23T04:58:48;17.60;99.90
6964;DHT22;3522;50.856;7.278;2022-08-23T05:01:15;17.60;99.90
6964;DHT22;3522;50.856;7.278;2022-08-23T05:03:41;17.50;99.90
6964;DHT22;3522;50.856;7.278;2022-08-23T05:06:09;17.50;99.90
6964;DHT22;3522;50.856;7.278;2022-08-23T05:08:36;17.40;99.90
6964;DHT22;3522;50.856;7.278;2022-08-23T05:11:04;17.40;99.90
6964;DHT22;3522;50.856;7.278;2022-08-23T05:13:31;17.40;99.90
6964;DHT22;3522;50.856;7.278;2022-08-23T05:15:58;17.50;99.90
6964;DHT22;3522;50.856;7.278;2022-08-23T05:18:25;17.50;99.90
6964;DHT22;3522;50.856;7.278;2022-08-23T05:20:52;17.60;99.90
6964;DHT22;3522;50.856;7.278;2022-08-23T05:23:20;17.70;99.90
6964;DHT22;3522;50.856;7.278;2022-08-23T05:25:46;17.70;99.90
6964;DHT22;3522;50.856;7.278;2022-08-23T05:28:18;17.70;99.90
6964;DHT22;3522;50.856;7.278;2022-08-23T05:30:52;17.70;99.90
6964;DHT22;3522;50.856;7.278;2022-08-23T05:33:19;17.80;99.90
6964;DHT22;3522;50.856;7.278;2022-08-23T05:35:45;17.80;99.90
6964;DHT22;3522;50.856;7.278;2022-08-23T05:38:12;17.90;99.90
6964;DHT22;3522;50.856;7.278;2022-08-23T05:40:40;18.00;99.90
6964;DHT22;3522;50.856;7.278;2022-08-23T05:43:06;18.10;99.90
6964;DHT22;3522;50.856;7.278;2022-08-23T05:45:33;18.20;99.90
6964;DHT22;3522;50.856;7.278;2022-08-23T05:47:59;18.30;99.90
6964;DHT22;3522;50.856;7.278;2022-08-23T05:50:26;18.50;99.90
6964;DHT22;3522;50.856;7.278;2022-08-23T05:52:52;18.70;99.90
6964;DHT22;3522;50.856;7.278;2022-08-23T05:55:19;18.80;99.90
6964;DHT22;3522;50.856;7.278;2022-08-23T05:57:47;19.00;99.90
6964;DHT22;3522;50.856;7.278;2022-08-23T06:00:14;19.30;99.90
6964;DHT22;3522;50.856;7.278;2022-08-23T06:02:41;19.40;99.90
6964;DHT22;3522;50.856;7.278;2022-08-23T06:05:07;19.60;99.90
6964;DHT22;3522;50.856;7.278;2022-08-23T06:07:34;19.80;99.90
6964;DHT22;3522;50.856;7.278;2022-08-23T06:10:01;20.10;99.90
6964;DHT22;3522;50.856;7.278;2022-08-23T06:12:29;20.20;99.90
6964;DHT22;3522;50.856;7.278;2022-08-23T06:14:57;20.40;99.90
6964;DHT22;3522;50.856;7.278;2022-08-23T06:17:24;20.60;99.90
6964;DHT22;3522;50.856;7.278;2022-08-23T06:19:50;20.80;99.90
6964;DHT22;3522;50.856;7.278;2022-08-23T06:22:17;21.00;99.90
6964;DHT22;3522;50.856;7.278;2022-08-23T06:24:43;21.30;99.90
6964;DHT22;3522;50.856;7.278;2022-08-23T06:27:10;21.40;99.90
6964;DHT22;3522;50.856;7.278;2022-08-23T06:29:37;21.70;99.90
6964;DHT22;3522;50.856;7.278;2022-08-23T06:32:05;21.80;99.90
6964;DHT22;3522;50.856;7.278;2022-08-23T06:34:33;22.00;99.90
6964;DHT22;3522;50.856;7.278;2022-08-23T06:37:01;22.20;99.90
6964;DHT22;3522;50.856;7.278;2022-08-23T06:39:29;22.50;99.90
6964;DHT22;3522;50.856;7.278;2022-08-23T06:41:56;22.70;99.90
6964;DHT22;3522;50.856;7.278;2022-08-23T06:44:25;22.90;99.60
6964;DHT22;3522;50.856;7.278;2022-08-23T06:46:52;23.20;99.40
6964;DHT22;3522;50.856;7.278;2022-08-23T06:49:21;23.50;99.20
6964;DHT22;3522;50.856;7.278;2022-08-23T06:51:49;23.70;98.70
6964;DHT22;3522;50.856;7.278;2022-08-23T06:54:16;24.00;98.30
6964;DHT22;3522;50.856;7.278;2022-08-23T06:56:44;24.30;97.70
6964;DHT22;3522;50.856;7.278;2022-08-23T06:59:11;24.50;97.00
6964;DHT22;3522;50.856;7.278;2022-08-23T07:01:39;24.60;96.10
6964;DHT22;3522;50.856;7.278;2022-08-23T07:04:07;24.80;96.00
6964;DHT22;3522;50.856;7.278;2022-08-23T07:06:36;25.00;94.90
6964;DHT22;3522;50.856;7.278;2022-08-23T07:09:03;25.10;93.80
6964;DHT22;3522;50.856;7.278;2022-08-23T07:11:30;25.30;93.60
6964;DHT22;3522;50.856;7.278;2022-08-23T07:13:57;25.30;93.20
6964;DHT22;3522;50.856;7.278;2022-08-23T07:16:25;25.40;93.40
6964;DHT22;3522;50.856;7.278;2022-08-23T07:18:56;25.70;92.70
6964;DHT22;3522;50.856;7.278;2022-08-23T07:21:23;25.80;91.50
6964;DHT22;3522;50.856;7.278;2022-08-23T07:23:51;26.00;91.40
6964;DHT22;3522;50.856;7.278;2022-08-23T07:26:18;26.10;91.10
6964;DHT22;3522;50.856;7.278;2022-08-23T07:28:46;26.20;90.80
6964;DHT22;3522;50.856;7.278;2022-08-23T07:31:13;26.30;90.50
6964;DHT22;3522;50.856;7.278;2022-08-23T07:33:41;26.10;90.00
6964;DHT22;3522;50.856;7.278;2022-08-23T07:36:08;26.20;90.20
6964;DHT22;3522;50.856;7.278;2022-08-23T07:38:34;26.50;89.80
6964;DHT22;3522;50.856;7.278;2022-08-23T07:41:03;26.70;88.20
6964;DHT22;3522;50.856;7.278;2022-08-23T07:43:30;26.70;86.50
6964;DHT22;3522;50.856;7.278;2022-08-23T07:45:56;26.70;86.90
6964;DHT22;3522;50.856;7.278;2022-08-23T07:48:23;26.60;85.30
6964;DHT22;3522;50.856;7.278;2022-08-23T07:50:50;26.60;85.50
6964;DHT22;3522;50.856;7.278;2022-08-23T07:53:18;26.90;85.70
6964;DHT22;3522;50.856;7.278;2022-08-23T07:55:44;27.20;84.20
6964;DHT22;3522;50.856;7.278;2022-08-23T07:58:12;27.40;83.20
6964;DHT22;3522;50.856;7.278;2022-08-23T08:00:39;27.60;80.50
6964;DHT22;3522;50.856;7.278;2022-08-23T08:03:06;27.60;81.30
6964;DHT22;3522;50.856;7.278;2022-08-23T08:05:33;27.80;81.20
6964;DHT22;3522;50.856;7.278;2022-08-23T08:08:00;28.00;79.90
6964;DHT22;3522;50.856;7.278;2022-08-23T08:10:26;28.20;78.40
6964;DHT22;3522;50.856;7.278;2022-08-23T08:12:53;28.40;78.50
6964;DHT22;3522;50.856;7.278;2022-08-23T08:15:21;28.50;77.90
6964;DHT22;3522;50.856;7.278;2022-08-23T08:17:48;28.70;77.90
6964;DHT22;3522;50.856;7.278;2022-08-23T08:20:15;29.10;77.30
6964;DHT22;3522;50.856;7.278;2022-08-23T08:22:41;29.30;76.20
6964;DHT22;3522;50.856;7.278;2022-08-23T08:25:08;29.60;75.10
6964;DHT22;3522;50.856;7.278;2022-08-23T08:27:35;29.70;74.00
6964;DHT22;3522;50.856;7.278;2022-08-23T08:30:02;30.00;72.80
6964;DHT22;3522;50.856;7.278;2022-08-23T08:32:30;30.10;72.30
6964;DHT22;3522;50.856;7.278;2022-08-23T08:34:57;30.20;71.50
6964;DHT22;3522;50.856;7.278;2022-08-23T08:37:23;30.50;70.20
6964;DHT22;3522;50.856;7.278;2022-08-23T08:39:50;30.60;69.20
6964;DHT22;3522;50.856;7.278;2022-08-23T08:42:20;30.40;68.30
6964;DHT22;3522;50.856;7.278;2022-08-23T08:44:50;30.50;67.80
6964;DHT22;3522;50.856;7.278;2022-08-23T08:47:18;30.00;68.70
6964;DHT22;3522;50.856;7.278;2022-08-23T08:49:50;30.10;69.20
6964;DHT22;3522;50.856;7.278;2022-08-23T08:52:19;30.20;68.60
6964;DHT22;3522;50.856;7.278;2022-08-23T08:54:48;30.30;67.60
6964;DHT22;3522;50.856;7.278;2022-08-23T08:57:15;30.60;67.50
6964;DHT22;3522;50.856;7.278;2022-08-23T08:59:46;30.80;66.60
6964;DHT22;3522;50.856;7.278;2022-08-23T09:02:15;30.90;66.50
6964;DHT22;3522;50.856;7.278;2022-08-23T09:04:41;30.80;65.90
6964;DHT22;3522;50.856;7.278;2022-08-23T09:07:11;31.00;65.40
6964;DHT22;3522;50.856;7.278;2022-08-23T09:09:50;30.50;66.30
6964;DHT22;3522;50.856;7.278;2022-08-23T09:12:23;30.80;67.60
6964;DHT22;3522;50.856;7.278;2022-08-23T09:14:56;31.00;64.70
6964;DHT22;3522;50.856;7.278;2022-08-23T09:17:29;30.80;65.50
6964;DHT22;3522;50.856;7.278;2022-08-23T09:19:59;30.80;66.40
6964;DHT22;3522;50.856;7.278;2022-08-23T09:22:31;30.60;66.00
6964;DHT22;3522;50.856;7.278;2022-08-23T09:25:00;30.80;65.30
6964;DHT22;3522;50.856;7.278;2022-08-23T09:27:26;30.80;64.40
6964;DHT22;3522;50.856;7.278;2022-08-23T09:29:54;30.70;64.90
6964;DHT22;3522;50.856;7.278;2022-08-23T09:32:26;30.60;64.90
6964;DHT22;3522;50.856;7.278;2022-08-23T09:34:52;30.20;64.90
6964;DHT22;3522;50.856;7.278;2022-08-23T09:37:31;29.90;65.70
6964;DHT22;3522;50.856;7.278;2022-08-23T09:40:14;29.80;66.30
6964;DHT22;3522;50.856;7.278;2022-08-23T09:42:41;30.00;66.00
6964;DHT22;3522;50.856;7.278;2022-08-23T09:45:23;30.30;68.60
6964;DHT22;3522;50.856;7.278;2022-08-23T09:47:50;30.50;69.40
6964;DHT22;3522;50.856;7.278;2022-08-23T09:50:22;30.70;66.00
6964;DHT22;3522;50.856;7.278;2022-08-23T09:52:52;30.90;66.00
6964;DHT22;3522;50.856;7.278;2022-08-23T09:55:25;31.00;63.00
6964;DHT22;3522;50.856;7.278;2022-08-23T09:57:52;31.20;63.80
6964;DHT22;3522;50.856;7.278;2022-08-23T10:00:22;31.60;63.00
6964;DHT22;3522;50.856;7.278;2022-08-23T10:02:49;31.70;65.80
6964;DHT22;3522;50.856;7.278;2022-08-23T10:05:27;31.90;63.20
6964;DHT22;3522;50.856;7.278;2022-08-23T10:07:55;31.90;60.80
6964;DHT22;3522;50.856;7.278;2022-08-23T10:10:26;32.20;62.20
6964;DHT22;3522;50.856;7.278;2022-08-23T10:12:54;31.90;62.20
6964;DHT22;3522;50.856;7.278;2022-08-23T10:15:22;31.80;63.80
6964;DHT22;3522;50.856;7.278;2022-08-23T10:17:52;31.80;63.80
6964;DHT22;3522;50.856;7.278;2022-08-23T10:20:25;31.40;61.30
6964;DHT22;3522;50.856;7.278;2022-08-23T10:22:57;31.50;62.30
6964;DHT22;3522;50.856;7.278;2022-08-23T10:25:29;31.90;61.60
6964;DHT22;3522;50.856;7.278;2022-08-23T10:28:00;31.90;62.50
6964;DHT22;3522;50.856;7.278;2022-08-23T10:30:47;32.10;60.40
6964;DHT22;3522;50.856;7.278;2022-08-23T10:33:18;32.10;59.00
6964;DHT22;3522;50.856;7.278;2022-08-23T10:35:46;32.10;57.90
6964;DHT22;3522;50.856;7.278;2022-08-23T10:38:21;32.10;58.30
6964;DHT22;3522;50.856;7.278;2022-08-23T10:40:52;32.30;57.30
6964;DHT22;3522;50.856;7.278;2022-08-23T10:43:23;32.30;57.60
6964;DHT22;3522;50.856;7.278;2022-08-23T10:45:52;32.30;57.00
6964;DHT22;3522;50.856;7.278;2022-08-23T10:48:20;32.00;56.50
6964;DHT22;3522;50.856;7.278;2022-08-23T10:50:53;31.80;57.80
6964;DHT22;3522;50.856;7.278;2022-08-23T10:53:22;32.10;57.40
6964;DHT22;3522;50.856;7.278;2022-08-23T10:55:50;32.40;56.70
6964;DHT22;3522;50.856;7.278;2022-08-23T10:58:28;32.70;56.10
6964;DHT22;3522;50.856;7.278;2022-08-23T11:00:56;33.00;55.90
6964;DHT22;3522;50.856;7.278;2022-08-23T11:03:26;33.00;55.20
6964;DHT22;3522;50.856;7.278;2022-08-23T11:08:39;33.00;56.30
6964;DHT22;3522;50.856;7.278;2022-08-23T11:13:51;32.50;53.80
6964;DHT22;3522;50.856;7.278;2022-08-23T11:16:20;32.00;55.60
6964;DHT22;3522;50.856;7.278;2022-08-23T11:18:49;32.30;55.70
6964;DHT22;3522;50.856;7.278;2022-08-23T11:29:31;33.40;53.70
6964;DHT22;3522;50.856;7.278;2022-08-23T11:32:00;33.30;51.40
6964;DHT22;3522;50.856;7.278;2022-08-23T11:34:28;33.20;52.30
6964;DHT22;3522;50.856;7.278;2022-08-23T11:40:02;33.10;52.20
6964;DHT22;3522;50.856;7.278;2022-08-23T11:42:42;33.30;52.80
6964;DHT22;3522;50.856;7.278;2022-08-23T11:45:20;33.30;52.00
6964;DHT22;3522;50.856;7.278;2022-08-23T11:47:48;33.40;52.10
6964;DHT22;3522;50.856;7.278;2022-08-23T11:50:21;33.60;51.70
6964;DHT22;3522;50.856;7.278;2022-08-23T11:52:57;33.50;51.00
6964;DHT22;3522;50.856;7.278;2022-08-23T11:55:50;33.70;51.00
6964;DHT22;3522;50.856;7.278;2022-08-23T11:58:21;33.70;51.50
6964;DHT22;3522;50.856;7.278;2022-08-23T12:00:54;34.20;50.90
6964;DHT22;3522;50.856;7.278;2022-08-23T12:03:23;34.30;48.70
6964;DHT22;3522;50.856;7.278;2022-08-23T12:08:51;34.40;48.70
6964;DHT22;3522;50.856;7.278;2022-08-23T12:11:20;34.30;48.20
6964;DHT22;3522;50.856;7.278;2022-08-23T12:13:49;34.10;48.30
6964;DHT22;3522;50.856;7.278;2022-08-23T12:19:04;33.60;48.50
6964;DHT22;3522;50.856;7.278;2022-08-23T12:21:32;33.70;48.90
6964;DHT22;3522;50.856;7.278;2022-08-23T12:24:01;33.70;48.90
6964;DHT22;3522;50.856;7.278;2022-08-23T12:26:41;34.00;48.80
6964;DHT22;3522;50.856;7.278;2022-08-23T12:29:11;33.90;48.20
6964;DHT22;3522;50.856;7.278;2022-08-23T12:31:45;34.00;49.90
6964;DHT22;3522;50.856;7.278;2022-08-23T12:34:18;34.20;48.50
6964;DHT22;3522;50.856;7.278;2022-08-23T12:36:50;34.30;48.70
6964;DHT22;3522;50.856;7.278;2022-08-23T12:39:21;34.30;47.80
6964;DHT22;3522;50.856;7.278;2022-08-23T12:41:50;34.30;47.30
6964;DHT22;3522;50.856;7.278;2022-08-23T12:44:17;34.20;48.00
6964;DHT22;3522;50.856;7.278;2022-08-23T12:46:45;34.10;47.20
6964;DHT22;3522;50.856;7.278;2022-08-23T12:49:22;33.90;47.80
6964;DHT22;3522;50.856;7.278;2022-08-23T12:51:50;34.20;48.50
6964;DHT22;3522;50.856;7.278;2022-08-23T12:54:19;34.40;48.20
6964;DHT22;3522;50.856;7.278;2022-08-23T12:56:46;34.80;47.00
6964;DHT22;3522;50.856;7.278;2022-08-23T12:59:26;35.10;47.90
6964;DHT22;3522;50.856;7.278;2022-08-23T13:01:55;35.20;46.90
6964;DHT22;3522;50.856;7.278;2022-08-23T13:04:23;35.20;47.00
6964;DHT22;3522;50.856;7.278;2022-08-23T13:06:50;35.20;45.90
6964;DHT22;3522;50.856;7.278;2022-08-23T13:09:20;34.90;45.90
6964;DHT22;3522;50.856;7.278;2022-08-23T13:11:48;34.50;46.50
6964;DHT22;3522;50.856;7.278;2022-08-23T13:14:21;34.30;47.30
6964;DHT22;3522;50.856;7.278;2022-08-23T13:16:47;34.10;48.10
6964;DHT22;3522;50.856;7.278;2022-08-23T13:19:15;34.00;48.20
6964;DHT22;3522;50.856;7.278;2022-08-23T13:21:43;33.70;48.20
6964;DHT22;3522;50.856;7.278;2022-08-23T13:26:51;33.40;49.10
6964;DHT22;3522;50.856;7.278;2022-08-23T13:29:20;33.20;49.00
6964;DHT22;3522;50.856;7.278;2022-08-23T13:31:48;33.00;48.50
6964;DHT22;3522;50.856;7.278;2022-08-23T13:34:29;32.90;49.00
6964;DHT22;3522;50.856;7.278;2022-08-23T13:36:57;33.10;49.90
6964;DHT22;3522;50.856;7.278;2022-08-23T13:39:24;33.40;49.30
6964;DHT22;3522;50.856;7.278;2022-08-23T13:41:51;33.80;49.20
6964;DHT22;3522;50.856;7.278;2022-08-23T13:44:17;34.10;49.50
6964;DHT22;3522;50.856;7.278;2022-08-23T13:46:45;34.10;47.60
6964;DHT22;3522;50.856;7.278;2022-08-23T13:49:14;33.90;46.50
6964;DHT22;3522;50.856;7.278;2022-08-23T13:51:42;34.00;46.30
6964;DHT22;3522;50.856;7.278;2022-08-23T13:54:12;34.10;47.50
6964;DHT22;3522;50.856;7.278;2022-08-23T13:56:40;34.30;46.60
6964;DHT22;3522;50.856;7.278;2022-08-23T13:59:15;34.00;47.50
6964;DHT22;3522;50.856;7.278;2022-08-23T14:01:43;33.50;49.50
6964;DHT22;3522;50.856;7.278;2022-08-23T14:04:10;33.10;47.70
6964;DHT22;3522;50.856;7.278;2022-08-23T14:06:37;33.20;48.30
6964;DHT22;3522;50.856;7.278;2022-08-23T14:09:03;32.90;47.50
6964;DHT22;3522;50.856;7.278;2022-08-23T14:11:32;33.00;49.40
6964;DHT22;3522;50.856;7.278;2022-08-23T14:13:59;33.20;48.70
6964;DHT22;3522;50.856;7.278;2022-08-23T14:16:27;33.00;47.70
6964;DHT22;3522;50.856;7.278;2022-08-23T14:18:54;32.90;48.80
6964;DHT22;3522;50.856;7.278;2022-08-23T14:21:21;33.00;48.20
6964;DHT22;3522;50.856;7.278;2022-08-23T14:23:48;33.10;48.20
6964;DHT22;3522;50.856;7.278;2022-08-23T14:26:15;33.10;47.70
6964;DHT22;3522;50.856;7.278;2022-08-23T14:28:44;33.10;47.40
6964;DHT22;3522;50.856;7.278;2022-08-23T14:31:11;32.70;49.00
6964;DHT22;3522;50.856;7.278;2022-08-23T14:33:38;32.40;48.20
6964;DHT22;3522;50.856;7.278;2022-08-23T14:36:05;32.10;49.40
6964;DHT22;3522;50.856;7.278;2022-08-23T14:38:32;32.10;49.90
6964;DHT22;3522;50.856;7.278;2022-08-23T14:41:00;32.10;48.70
6964;DHT22;3522;50.856;7.278;2022-08-23T14:43:27;31.80;48.90
6964;DHT22;3522;50.856;7.278;2022-08-23T14:45:56;31.80;49.90
6964;DHT22;3522;50.856;7.278;2022-08-23T14:48:22;31.60;51.00
6964;DHT22;3522;50.856;7.278;2022-08-23T14:50:50;31.60;50.40
6964;DHT22;3522;50.856;7.278;2022-08-23T14:53:17;31.60;50.70
6964;DHT22;3522;50.856;7.278;2022-08-23T14:55:44;31.60;50.20
6964;DHT22;3522;50.856;7.278;2022-08-23T14:58:13;31.60;49.50
6964;DHT22;3522;50.856;7.278;2022-08-23T15:00:41;31.60;49.50
6964;DHT22;3522;50.856;7.278;2022-08-23T15:03:10;31.60;49.50
6964;DHT22;3522;50.856;7.278;2022-08-23T15:05:37;31.70;49.60
6964;DHT22;3522;50.856;7.278;2022-08-23T15:08:04;31.80;48.70
6964;DHT22;3522;50.856;7.278;2022-08-23T15:10:30;31.90;48.40
6964;DHT22;3522;50.856;7.278;2022-08-23T15:12:57;31.90;49.20
6964;DHT22;3522;50.856;7.278;2022-08-23T15:15:23;32.00;48.70
6964;DHT22;3522;50.856;7.278;2022-08-23T15:17:51;32.10;48.70
6964;DHT22;3522;50.856;7.278;2022-08-23T15:20:20;32.20;51.30
6964;DHT22;3522;50.856;7.278;2022-08-23T15:22:47;32.50;51.40
6964;DHT22;3522;50.856;7.278;2022-08-23T15:25:14;32.60;51.20
6964;DHT22;3522;50.856;7.278;2022-08-23T15:27:41;32.50;49.50
6964;DHT22;3522;50.856;7.278;2022-08-23T15:30:08;32.20;52.50
6964;DHT22;3522;50.856;7.278;2022-08-23T15:32:35;32.10;49.20
6964;DHT22;3522;50.856;7.278;2022-08-23T15:35:02;32.00;51.70
6964;DHT22;3522;50.856;7.278;2022-08-23T15:37:30;32.00;51.00
6964;DHT22;3522;50.856;7.278;2022-08-23T15:39:56;32.10;52.60
6964;DHT22;3522;50.856;7.278;2022-08-23T15:42:23;31.90;50.10
6964;DHT22;3522;50.856;7.278;2022-08-23T15:44:49;32.00;51.20
6964;DHT22;3522;50.856;7.278;2022-08-23T15:47:17;32.00;49.60
6964;DHT22;3522;50.856;7.278;2022-08-23T15:49:45;32.10;50.30
6964;DHT22;3522;50.856;7.278;2022-08-23T15:52:11;32.10;52.60
6964;DHT22;3522;50.856;7.278;2022-08-23T15:54:39;32.10;51.90
6964;DHT22;3522;50.856;7.278;2022-08-23T15:57:06;31.90;52.00
6964;DHT22;3522;50.856;7.278;2022-08-23T15:59:34;31.60;50.20
6964;DHT22;3522;50.856;7.278;2022-08-23T16:02:02;31.50;50.90
6964;DHT22;3522;50.856;7.278;2022-08-23T16:04:29;31.20;51.50
6964;DHT22;3522;50.856;7.278;2022-08-23T16:06:55;31.10;52.90
6964;DHT22;3522;50.856;7.278;2022-08-23T16:09:23;31.10;52.10
6964;DHT22;3522;50.856;7.278;2022-08-23T16:11:51;31.10;52.40
6964;DHT22;3522;50.856;7.278;2022-08-23T16:14:18;31.10;52.50
6964;DHT22;3522;50.856;7.278;2022-08-23T16:16:44;31.10;52.40
6964;DHT22;3522;50.856;7.278;2022-08-23T16:19:12;31.10;53.50
6964;DHT22;3522;50.856;7.278;2022-08-23T16:21:39;31.10;53.40
6964;DHT22;3522;50.856;7.278;2022-08-23T16:24:06;31.10;54.20
6964;DHT22;3522;50.856;7.278;2022-08-23T16:26:35;31.00;52.30
6964;DHT22;3522;50.856;7.278;2022-08-23T16:29:05;30.90;51.60
6964;DHT22;3522;50.856;7.278;2022-08-23T16:31:31;31.00;52.80
6964;DHT22;3522;50.856;7.278;2022-08-23T16:33:58;30.80;54.60